sensor_id;sensor_type;location;lat;lon;timestamp;P1;durP1;ratioP1;P2;durP2;ratioP2
79798;SDS011;69283;48.024;11.090;2023-11-21T00:03:02;2.92;;;1.30;;
79798;SDS011;69283;48.024;11.090;2023-11-21T00:06:00;9.55;;;1.30;;
79798;SDS011;69283;48.024;11.090;2023-11-21T00:11:53;6.47;;;1.75;;
79798;SDS011;69283;48.024;11.090;2023-11-21T00:14:40;7.55;;;1.95;;
79798;SDS011;69283;48.024;11.090;2023-11-21T00:17:21;3.13;;;0.80;;
79798;SDS011;69283;48.024;11.090;2023-11-21T00:20:11;4.72;;;0.95;;
79798;SDS011;69283;48.024;11.090;2023-11-21T00:22:39;5.75;;;1.83;;
79798;SDS011;69283;48.024;11.090;2023-11-21T00:25:39;5.45;;;1.20;;
79798;SDS011;69283;48.024;11.090;2023-11-21T00:28:26;10.30;;;2.90;;
79798;SDS011;69283;48.024;11.090;2023-11-21T00:31:13;5.05;;;1.55;;
79798;SDS011;69283;48.024;11.090;2023-11-21T00:33:49;7.28;;;1.75;;
79798;SDS011;69283;48.024;11.090;2023-11-21T00:36:22;6.85;;;1.40;;
79798;SDS011;69283;48.024;11.090;2023-11-21T00:45:37;9.07;;;2.03;;
79798;SDS011;69283;48.024;11.090;2023-11-21T00:51:31;3.83;;;0.80;;
79798;SDS011;69283;48.024;11.090;2023-11-21T00:54:39;3.15;;;1.10;;
79798;SDS011;69283;48.024;11.090;2023-11-21T00:57:17;6.90;;;1.27;;
79798;SDS011;69283;48.024;11.090;2023-11-21T01:02:59;5.50;;;1.55;;
79798;SDS011;69283;48.024;11.090;2023-11-21T01:08:26;3.38;;;1.10;;
79798;SDS011;69283;48.024;11.090;2023-11-21T01:11:04;4.60;;;1.10;;
79798;SDS011;69283;48.024;11.090;2023-11-21T01:13:42;6.60;;;1.40;;
79798;SDS011;69283;48.024;11.090;2023-11-21T01:16:46;4.25;;;1.95;;
79798;SDS011;69283;48.024;11.090;2023-11-21T01:19:11;2.90;;;0.90;;
79798;SDS011;69283;48.024;11.090;2023-11-21T01:21:56;7.50;;;1.42;;
79798;SDS011;69283;48.024;11.090;2023-11-21T01:27:36;8.60;;;1.35;;
79798;SDS011;69283;48.024;11.090;2023-11-21T01:30:30;2.78;;;1.23;;
79798;SDS011;69283;48.024;11.090;2023-11-21T01:33:23;6.45;;;1.08;;
79798;SDS011;69283;48.024;11.090;2023-11-21T01:36:11;3.30;;;1.38;;
79798;SDS011;69283;48.024;11.090;2023-11-21T01:38:42;4.72;;;1.63;;
79798;SDS011;69283;48.024;11.090;2023-11-21T01:41:18;4.10;;;1.45;;
79798;SDS011;69283;48.024;11.090;2023-11-21T01:44:11;6.25;;;1.00;;
79798;SDS011;69283;48.024;11.090;2023-11-21T01:46:57;2.78;;;1.30;;
79798;SDS011;69283;48.024;11.090;2023-11-21T01:49:30;3.28;;;0.88;;
79798;SDS011;69283;48.024;11.090;2023-11-21T01:52:12;2.00;;;0.70;;
79798;SDS011;69283;48.024;11.090;2023-11-21T01:54:38;2.78;;;1.33;;
79798;SDS011;69283;48.024;11.090;2023-11-21T01:57:03;6.43;;;1.17;;
79798;SDS011;69283;48.024;11.090;2023-11-21T01:59:39;6.43;;;0.95;;
79798;SDS011;69283;48.024;11.090;2023-11-21T02:02:21;4.97;;;2.55;;
79798;SDS011;69283;48.024;11.090;2023-11-21T02:05:30;2.78;;;0.85;;
79798;SDS011;69283;48.024;11.090;2023-11-21T02:08:14;1.45;;;0.75;;
79798;SDS011;69283;48.024;11.090;2023-11-21T02:10:41;4.70;;;1.05;;
79798;SDS011;69283;48.024;11.090;2023-11-21T02:13:18;2.83;;;1.00;;
79798;SDS011;69283;48.024;11.090;2023-11-21T02:19:02;4.22;;;1.23;;
79798;SDS011;69283;48.024;11.090;2023-11-21T02:22:06;3.40;;;1.52;;
79798;SDS011;69283;48.024;11.090;2023-11-21T02:24:45;2.28;;;0.90;;
79798;SDS011;69283;48.024;11.090;2023-11-21T02:27:16;3.28;;;0.90;;
79798;SDS011;69283;48.024;11.090;2023-11-21T02:29:49;2.13;;;0.73;;
79798;SDS011;69283;48.024;11.090;2023-11-21T02:32:41;2.83;;;0.90;;
79798;SDS011;69283;48.024;11.090;2023-11-21T02:35:37;3.40;;;0.73;;
79798;SDS011;69283;48.024;11.090;2023-11-21T02:38:30;2.67;;;0.80;;
79798;SDS011;69283;48.024;11.090;2023-11-21T02:44:18;3.50;;;0.77;;
79798;SDS011;69283;48.024;11.090;2023-11-21T02:53:39;2.70;;;0.68;;
79798;SDS011;69283;48.024;11.090;2023-11-21T02:56:44;1.48;;;0.50;;
79798;SDS011;69283;48.024;11.090;2023-11-21T02:59:40;0.55;;;0.30;;
79798;SDS011;69283;48.024;11.090;2023-11-21T03:02:28;1.35;;;0.88;;
79798;SDS011;69283;48.024;11.090;2023-11-21T03:05:37;2.78;;;0.50;;
79798;SDS011;69283;48.024;11.090;2023-11-21T03:08:44;1.33;;;0.50;;
79798;SDS011;69283;48.024;11.090;2023-11-21T03:14:25;7.60;;;0.95;;
79798;SDS011;69283;48.024;11.090;2023-11-21T03:17:13;3.35;;;0.60;;
79798;SDS011;69283;48.024;11.090;2023-11-21T03:20:09;2.28;;;0.55;;
79798;SDS011;69283;48.024;11.090;2023-11-21T03:29:30;2.67;;;0.70;;
79798;SDS011;69283;48.024;11.090;2023-11-21T03:32:30;3.70;;;0.77;;
79798;SDS011;69283;48.024;11.090;2023-11-21T03:38:16;5.47;;;0.77;;
79798;SDS011;69283;48.024;11.090;2023-11-21T03:41:31;2.35;;;1.15;;
79798;SDS011;69283;48.024;11.090;2023-11-21T03:44:35;2.22;;;0.50;;
79798;SDS011;69283;48.024;11.090;2023-11-21T03:47:21;4.40;;;0.85;;
79798;SDS011;69283;48.024;11.090;2023-11-21T03:50:06;2.55;;;0.88;;
79798;SDS011;69283;48.024;11.090;2023-11-21T03:53:03;1.90;;;0.73;;
79798;SDS011;69283;48.024;11.090;2023-11-21T03:55:51;3.88;;;0.55;;
79798;SDS011;69283;48.024;11.090;2023-11-21T03:59:14;3.58;;;0.90;;
79798;SDS011;69283;48.024;11.090;2023-11-21T04:02:07;2.35;;;1.00;;
79798;SDS011;69283;48.024;11.090;2023-11-21T04:04:46;3.60;;;0.80;;
79798;SDS011;69283;48.024;11.090;2023-11-21T04:07:32;1.92;;;0.80;;
79798;SDS011;69283;48.024;11.090;2023-11-21T04:10:10;7.53;;;1.23;;
79798;SDS011;69283;48.024;11.090;2023-11-21T04:16:43;1.92;;;0.70;;
79798;SDS011;69283;48.024;11.090;2023-11-21T04:19:51;5.60;;;1.15;;
79798;SDS011;69283;48.024;11.090;2023-11-21T04:25:41;2.08;;;0.90;;
79798;SDS011;69283;48.024;11.090;2023-11-21T04:28:22;3.80;;;0.95;;
79798;SDS011;69283;48.024;11.090;2023-11-21T04:31:15;4.55;;;0.95;;
79798;SDS011;69283;48.024;11.090;2023-11-21T04:34:03;2.97;;;1.17;;
79798;SDS011;69283;48.024;11.090;2023-11-21T04:37:02;4.78;;;0.75;;
79798;SDS011;69283;48.024;11.090;2023-11-21T04:39:30;1.98;;;0.85;;
79798;SDS011;69283;48.024;11.090;2023-11-21T04:42:45;2.75;;;0.70;;
79798;SDS011;69283;48.024;11.090;2023-11-21T04:45:38;2.80;;;1.35;;
79798;SDS011;69283;48.024;11.090;2023-11-21T04:48:10;3.72;;;1.70;;
79798;SDS011;69283;48.024;11.090;2023-11-21T04:50:43;2.70;;;0.90;;
79798;SDS011;69283;48.024;11.090;2023-11-21T04:53:29;2.42;;;0.88;;
79798;SDS011;69283;48.024;11.090;2023-11-21T04:56:11;5.93;;;1.45;;
79798;SDS011;69283;48.024;11.090;2023-11-21T04:58:58;2.60;;;0.95;;
79798;SDS011;69283;48.024;11.090;2023-11-21T05:01:38;2.10;;;1.00;;
79798;SDS011;69283;48.024;11.090;2023-11-21T05:04:09;3.95;;;1.10;;
79798;SDS011;69283;48.024;11.090;2023-11-21T05:06:42;3.13;;;0.85;;
79798;SDS011;69283;48.024;11.090;2023-11-21T05:09:10;3.20;;;1.23;;
79798;SDS011;69283;48.024;11.090;2023-11-21T05:12:23;3.25;;;0.80;;
79798;SDS011;69283;48.024;11.090;2023-11-21T05:14:48;3.47;;;0.75;;
79798;SDS011;69283;48.024;11.090;2023-11-21T05:20:41;2.70;;;0.63;;
79798;SDS011;69283;48.024;11.090;2023-11-21T05:23:21;1.75;;;0.85;;
79798;SDS011;69283;48.024;11.090;2023-11-21T05:26:23;2.63;;;0.85;;
79798;SDS011;69283;48.024;11.090;2023-11-21T05:28:57;5.68;;;1.08;;
79798;SDS011;69283;48.024;11.090;2023-11-21T05:31:48;1.95;;;0.68;;
79798;SDS011;69283;48.024;11.090;2023-11-21T05:34:50;1.85;;;0.63;;
79798;SDS011;69283;48.024;11.090;2023-11-21T05:37:50;3.20;;;0.50;;
79798;SDS011;69283;48.024;11.090;2023-11-21T05:43:16;1.10;;;0.70;;
79798;SDS011;69283;48.024;11.090;2023-11-21T05:46:04;1.00;;;0.57;;
79798;SDS011;69283;48.024;11.090;2023-11-21T05:48:30;2.10;;;1.02;;
79798;SDS011;69283;48.024;11.090;2023-11-21T05:51:13;3.05;;;0.80;;
79798;SDS011;69283;48.024;11.090;2023-11-21T05:53:38;2.85;;;1.05;;
79798;SDS011;69283;48.024;11.090;2023-11-21T05:56:09;8.50;;;1.73;;
79798;SDS011;69283;48.024;11.090;2023-11-21T05:58:57;2.55;;;1.48;;
79798;SDS011;69283;48.024;11.090;2023-11-21T06:01:28;3.30;;;0.82;;
79798;SDS011;69283;48.024;11.090;2023-11-21T06:03:58;5.65;;;1.77;;
79798;SDS011;69283;48.024;11.090;2023-11-21T06:06:24;1.73;;;0.90;;
79798;SDS011;69283;48.024;11.090;2023-11-21T06:08:50;3.72;;;0.80;;
79798;SDS011;69283;48.024;11.090;2023-11-21T06:11:15;3.58;;;0.70;;
79798;SDS011;69283;48.024;11.090;2023-11-21T06:13:41;2.13;;;0.88;;
79798;SDS011;69283;48.024;11.090;2023-11-21T06:16:07;1.67;;;0.82;;
79798;SDS011;69283;48.024;11.090;2023-11-21T06:18:32;4.30;;;0.90;;
79798;SDS011;69283;48.024;11.090;2023-11-21T06:20:57;3.73;;;0.70;;
79798;SDS011;69283;48.024;11.090;2023-11-21T06:26:26;1.30;;;0.88;;
79798;SDS011;69283;48.024;11.090;2023-11-21T06:28:54;1.92;;;0.85;;
79798;SDS011;69283;48.024;11.090;2023-11-21T06:31:20;2.53;;;0.80;;
79798;SDS011;69283;48.024;11.090;2023-11-21T06:33:49;2.10;;;0.50;;
79798;SDS011;69283;48.024;11.090;2023-11-21T06:36:25;1.63;;;0.80;;
79798;SDS011;69283;48.024;11.090;2023-11-21T06:38:51;2.42;;;1.30;;
79798;SDS011;69283;48.024;11.090;2023-11-21T06:41:20;6.05;;;2.42;;
79798;SDS011;69283;48.024;11.090;2023-11-21T06:43:45;3.45;;;1.05;;
79798;SDS011;69283;48.024;11.090;2023-11-21T06:46:12;1.83;;;0.45;;
79798;SDS011;69283;48.024;11.090;2023-11-21T06:48:42;1.38;;;0.40;;
79798;SDS011;69283;48.024;11.090;2023-11-21T06:53:36;1.33;;;0.30;;
79798;SDS011;69283;48.024;11.090;2023-11-21T06:56:02;1.30;;;0.60;;
79798;SDS011;69283;48.024;11.090;2023-11-21T06:58:27;3.97;;;0.77;;
79798;SDS011;69283;48.024;11.090;2023-11-21T07:00:53;1.63;;;1.17;;
79798;SDS011;69283;48.024;11.090;2023-11-21T07:03:18;0.95;;;0.55;;
79798;SDS011;69283;48.024;11.090;2023-11-21T07:05:44;0.75;;;0.38;;
79798;SDS011;69283;48.024;11.090;2023-11-21T07:08:11;1.75;;;0.90;;
79798;SDS011;69283;48.024;11.090;2023-11-21T07:10:40;2.92;;;0.52;;
79798;SDS011;69283;48.024;11.090;2023-11-21T07:13:07;0.93;;;0.40;;
79798;SDS011;69283;48.024;11.090;2023-11-21T07:15:36;0.50;;;0.40;;
79798;SDS011;69283;48.024;11.090;2023-11-21T07:18:06;1.67;;;0.60;;
79798;SDS011;69283;48.024;11.090;2023-11-21T07:20:33;0.35;;;0.30;;
79798;SDS011;69283;48.024;11.090;2023-11-21T07:22:59;1.80;;;0.70;;
79798;SDS011;69283;48.024;11.090;2023-11-21T07:25:25;1.90;;;0.50;;
79798;SDS011;69283;48.024;11.090;2023-11-21T07:27:51;1.92;;;0.70;;
79798;SDS011;69283;48.024;11.090;2023-11-21T07:32:44;1.50;;;0.87;;
79798;SDS011;69283;48.024;11.090;2023-11-21T07:35:09;2.55;;;0.95;;
79798;SDS011;69283;48.024;11.090;2023-11-21T07:37:35;2.20;;;1.05;;
79798;SDS011;69283;48.024;11.090;2023-11-21T07:40:00;0.90;;;0.50;;
79798;SDS011;69283;48.024;11.090;2023-11-21T07:42:26;1.20;;;0.80;;
79798;SDS011;69283;48.024;11.090;2023-11-21T07:44:53;8.52;;;3.33;;
79798;SDS011;69283;48.024;11.090;2023-11-21T07:47:19;2.42;;;1.38;;
79798;SDS011;69283;48.024;11.090;2023-11-21T07:49:44;4.03;;;1.23;;
79798;SDS011;69283;48.024;11.090;2023-11-21T07:52:10;1.20;;;0.50;;
79798;SDS011;69283;48.024;11.090;2023-11-21T07:54:35;1.55;;;0.60;;
79798;SDS011;69283;48.024;11.090;2023-11-21T07:57:01;1.25;;;0.68;;
79798;SDS011;69283;48.024;11.090;2023-11-21T07:59:26;0.98;;;0.60;;
79798;SDS011;69283;48.024;11.090;2023-11-21T08:01:52;1.87;;;0.73;;
79798;SDS011;69283;48.024;11.090;2023-11-21T08:04:17;3.90;;;1.77;;
79798;SDS011;69283;48.024;11.090;2023-11-21T08:06:43;2.33;;;0.80;;
79798;SDS011;69283;48.024;11.090;2023-11-21T08:09:08;2.17;;;0.80;;
79798;SDS011;69283;48.024;11.090;2023-11-21T08:11:34;1.38;;;1.10;;
79798;SDS011;69283;48.024;11.090;2023-11-21T08:13:59;1.40;;;0.80;;
79798;SDS011;69283;48.024;11.090;2023-11-21T08:16:27;1.70;;;1.00;;
79798;SDS011;69283;48.024;11.090;2023-11-21T08:18:52;1.85;;;0.70;;
79798;SDS011;69283;48.024;11.090;2023-11-21T08:21:17;1.63;;;0.80;;
79798;SDS011;69283;48.024;11.090;2023-11-21T08:23:44;1.02;;;0.52;;
79798;SDS011;69283;48.024;11.090;2023-11-21T08:26:09;1.55;;;0.60;;
79798;SDS011;69283;48.024;11.090;2023-11-21T08:28:34;0.80;;;0.53;;
79798;SDS011;69283;48.024;11.090;2023-11-21T08:31:00;3.07;;;1.03;;
79798;SDS011;69283;48.024;11.090;2023-11-21T08:33:26;1.58;;;0.73;;
79798;SDS011;69283;48.024;11.090;2023-11-21T08:35:54;2.33;;;1.08;;
79798;SDS011;69283;48.024;11.090;2023-11-21T08:38:22;2.35;;;0.75;;
79798;SDS011;69283;48.024;11.090;2023-11-21T08:43:47;2.63;;;0.75;;
79798;SDS011;69283;48.024;11.090;2023-11-21T08:46:21;3.22;;;0.88;;
79798;SDS011;69283;48.024;11.090;2023-11-21T08:48:46;1.95;;;0.63;;
79798;SDS011;69283;48.024;11.090;2023-11-21T08:51:17;3.42;;;0.70;;
79798;SDS011;69283;48.024;11.090;2023-11-21T08:53:50;1.90;;;0.70;;
79798;SDS011;69283;48.024;11.090;2023-11-21T08:56:18;1.55;;;0.75;;
79798;SDS011;69283;48.024;11.090;2023-11-21T08:58:45;2.55;;;1.00;;
79798;SDS011;69283;48.024;11.090;2023-11-21T09:01:11;1.60;;;0.55;;
79798;SDS011;69283;48.024;11.090;2023-11-21T09:03:40;2.38;;;0.98;;
79798;SDS011;69283;48.024;11.090;2023-11-21T09:06:05;2.67;;;0.90;;
79798;SDS011;69283;48.024;11.090;2023-11-21T09:08:34;3.17;;;1.35;;
79798;SDS011;69283;48.024;11.090;2023-11-21T09:10:59;2.27;;;0.73;;
79798;SDS011;69283;48.024;11.090;2023-11-21T09:13:25;15.13;;;2.07;;
79798;SDS011;69283;48.024;11.090;2023-11-21T09:15:50;1.43;;;0.80;;
79798;SDS011;69283;48.024;11.090;2023-11-21T09:18:16;3.42;;;1.15;;
79798;SDS011;69283;48.024;11.090;2023-11-21T09:20:42;3.55;;;1.00;;
79798;SDS011;69283;48.024;11.090;2023-11-21T09:23:09;1.38;;;0.57;;
79798;SDS011;69283;48.024;11.090;2023-11-21T09:25:34;2.88;;;0.90;;
79798;SDS011;69283;48.024;11.090;2023-11-21T09:27:59;3.33;;;1.10;;
79798;SDS011;69283;48.024;11.090;2023-11-21T09:30:24;5.07;;;0.90;;
79798;SDS011;69283;48.024;11.090;2023-11-21T09:32:50;2.40;;;1.00;;
79798;SDS011;69283;48.024;11.090;2023-11-21T09:35:16;2.75;;;1.05;;
79798;SDS011;69283;48.024;11.090;2023-11-21T09:37:43;17.67;;;7.32;;
79798;SDS011;69283;48.024;11.090;2023-11-21T09:40:13;13.60;;;5.38;;
79798;SDS011;69283;48.024;11.090;2023-11-21T09:42:51;6.18;;;3.30;;
79798;SDS011;69283;48.024;11.090;2023-11-21T09:45:28;2.45;;;1.13;;
79798;SDS011;69283;48.024;11.090;2023-11-21T09:47:59;2.92;;;0.80;;
79798;SDS011;69283;48.024;11.090;2023-11-21T09:50:25;3.13;;;1.23;;
79798;SDS011;69283;48.024;11.090;2023-11-21T09:55:42;1.67;;;0.88;;
79798;SDS011;69283;48.024;11.090;2023-11-21T09:58:09;2.08;;;1.02;;
79798;SDS011;69283;48.024;11.090;2023-11-21T10:00:37;2.15;;;0.98;;
79798;SDS011;69283;48.024;11.090;2023-11-21T10:03:13;1.98;;;0.88;;
79798;SDS011;69283;48.024;11.090;2023-11-21T10:05:43;1.98;;;0.75;;
79798;SDS011;69283;48.024;11.090;2023-11-21T10:08:11;1.23;;;0.60;;
79798;SDS011;69283;48.024;11.090;2023-11-21T10:10:38;1.65;;;0.93;;
79798;SDS011;69283;48.024;11.090;2023-11-21T10:13:11;2.33;;;1.00;;
79798;SDS011;69283;48.024;11.090;2023-11-21T10:15:49;2.33;;;1.00;;
79798;SDS011;69283;48.024;11.090;2023-11-21T10:18:17;2.88;;;1.20;;
79798;SDS011;69283;48.024;11.090;2023-11-21T10:20:44;2.75;;;1.25;;
79798;SDS011;69283;48.024;11.090;2023-11-21T10:23:16;1.90;;;0.93;;
79798;SDS011;69283;48.024;11.090;2023-11-21T10:25:43;3.03;;;1.23;;
79798;SDS011;69283;48.024;11.090;2023-11-21T10:28:09;2.07;;;1.37;;
79798;SDS011;69283;48.024;11.090;2023-11-21T10:30:37;4.38;;;0.80;;
79798;SDS011;69283;48.024;11.090;2023-11-21T10:33:05;3.17;;;1.10;;
79798;SDS011;69283;48.024;11.090;2023-11-21T10:35:46;2.28;;;0.98;;
79798;SDS011;69283;48.024;11.090;2023-11-21T10:38:15;2.97;;;0.90;;
79798;SDS011;69283;48.024;11.090;2023-11-21T10:40:41;3.13;;;1.05;;
79798;SDS011;69283;48.024;11.090;2023-11-21T10:43:07;4.70;;;1.30;;
79798;SDS011;69283;48.024;11.090;2023-11-21T10:45:37;1.90;;;0.77;;
79798;SDS011;69283;48.024;11.090;2023-11-21T10:48:07;2.72;;;1.23;;
79798;SDS011;69283;48.024;11.090;2023-11-21T10:50:36;1.95;;;1.10;;
79798;SDS011;69283;48.024;11.090;2023-11-21T10:53:02;1.77;;;0.93;;
79798;SDS011;69283;48.024;11.090;2023-11-21T10:55:31;2.67;;;1.63;;
79798;SDS011;69283;48.024;11.090;2023-11-21T10:58:02;4.45;;;1.48;;
79798;SDS011;69283;48.024;11.090;2023-11-21T11:00:30;4.80;;;1.30;;
79798;SDS011;69283;48.024;11.090;2023-11-21T11:02:56;2.85;;;1.00;;
79798;SDS011;69283;48.024;11.090;2023-11-21T11:05:24;2.55;;;1.10;;
79798;SDS011;69283;48.024;11.090;2023-11-21T11:07:51;2.00;;;1.30;;
79798;SDS011;69283;48.024;11.090;2023-11-21T11:10:20;15.07;;;6.28;;
79798;SDS011;69283;48.024;11.090;2023-11-21T11:12:47;18.23;;;6.40;;
79798;SDS011;69283;48.024;11.090;2023-11-21T11:15:13;8.27;;;4.38;;
79798;SDS011;69283;48.024;11.090;2023-11-21T11:17:45;4.95;;;1.55;;
79798;SDS011;69283;48.024;11.090;2023-11-21T11:20:11;2.40;;;1.60;;
79798;SDS011;69283;48.024;11.090;2023-11-21T11:25:35;4.60;;;1.45;;
79798;SDS011;69283;48.024;11.090;2023-11-21T11:28:04;4.13;;;1.42;;
79798;SDS011;69283;48.024;11.090;2023-11-21T11:36:23;2.70;;;1.30;;
79798;SDS011;69283;48.024;11.090;2023-11-21T11:38:54;3.13;;;1.40;;
79798;SDS011;69283;48.024;11.090;2023-11-21T11:41:24;4.28;;;2.22;;
79798;SDS011;69283;48.024;11.090;2023-11-21T11:43:54;5.35;;;2.00;;
79798;SDS011;69283;48.024;11.090;2023-11-21T11:46:19;6.95;;;1.67;;
79798;SDS011;69283;48.024;11.090;2023-11-21T11:49:02;2.33;;;0.90;;
79798;SDS011;69283;48.024;11.090;2023-11-21T11:51:28;2.47;;;1.40;;
79798;SDS011;69283;48.024;11.090;2023-11-21T11:53:56;23.08;;;1.98;;
79798;SDS011;69283;48.024;11.090;2023-11-21T11:59:03;4.15;;;1.33;;
79798;SDS011;69283;48.024;11.090;2023-11-21T12:01:34;3.95;;;2.00;;
79798;SDS011;69283;48.024;11.090;2023-11-21T12:06:45;2.08;;;1.27;;
79798;SDS011;69283;48.024;11.090;2023-11-21T12:09:23;6.90;;;1.20;;
79798;SDS011;69283;48.024;11.090;2023-11-21T12:11:49;4.00;;;1.30;;
79798;SDS011;69283;48.024;11.090;2023-11-21T12:14:15;2.83;;;1.60;;
79798;SDS011;69283;48.024;11.090;2023-11-21T12:16:41;2.15;;;1.40;;
79798;SDS011;69283;48.024;11.090;2023-11-21T12:19:10;2.85;;;1.40;;
79798;SDS011;69283;48.024;11.090;2023-11-21T12:21:39;2.03;;;1.00;;
79798;SDS011;69283;48.024;11.090;2023-11-21T12:24:07;2.60;;;1.10;;
79798;SDS011;69283;48.024;11.090;2023-11-21T12:26:38;2.33;;;1.20;;
79798;SDS011;69283;48.024;11.090;2023-11-21T12:29:06;4.13;;;1.40;;
79798;SDS011;69283;48.024;11.090;2023-11-21T12:31:32;2.35;;;0.90;;
79798;SDS011;69283;48.024;11.090;2023-11-21T12:33:59;4.15;;;1.30;;
79798;SDS011;69283;48.024;11.090;2023-11-21T12:36:25;5.10;;;1.30;;
79798;SDS011;69283;48.024;11.090;2023-11-21T12:38:51;7.53;;;1.35;;
79798;SDS011;69283;48.024;11.090;2023-11-21T12:41:16;2.20;;;0.93;;
79798;SDS011;69283;48.024;11.090;2023-11-21T12:43:42;3.47;;;1.10;;
79798;SDS011;69283;48.024;11.090;2023-11-21T12:46:08;4.28;;;1.40;;
79798;SDS011;69283;48.024;11.090;2023-11-21T12:48:38;2.20;;;1.02;;
79798;SDS011;69283;48.024;11.090;2023-11-21T12:51:05;2.40;;;1.00;;
79798;SDS011;69283;48.024;11.090;2023-11-21T12:53:31;2.78;;;1.10;;
79798;SDS011;69283;48.024;11.090;2023-11-21T12:56:01;3.50;;;1.02;;
79798;SDS011;69283;48.024;11.090;2023-11-21T12:58:31;3.10;;;1.25;;
79798;SDS011;69283;48.024;11.090;2023-11-21T13:01:01;4.95;;;1.02;;
79798;SDS011;69283;48.024;11.090;2023-11-21T13:03:29;3.88;;;1.38;;
79798;SDS011;69283;48.024;11.090;2023-11-21T13:05:55;2.58;;;1.38;;
79798;SDS011;69283;48.024;11.090;2023-11-21T13:08:22;3.58;;;1.52;;
79798;SDS011;69283;48.024;11.090;2023-11-21T13:10:49;3.50;;;1.77;;
79798;SDS011;69283;48.024;11.090;2023-11-21T13:13:16;3.25;;;1.42;;
79798;SDS011;69283;48.024;11.090;2023-11-21T13:15:55;2.67;;;0.75;;
79798;SDS011;69283;48.024;11.090;2023-11-21T13:18:33;1.35;;;0.60;;
79798;SDS011;69283;48.024;11.090;2023-11-21T13:20:59;0.73;;;0.45;;
79798;SDS011;69283;48.024;11.090;2023-11-21T13:23:27;0.88;;;0.35;;
79798;SDS011;69283;48.024;11.090;2023-11-21T13:25:54;0.68;;;0.40;;
79798;SDS011;69283;48.024;11.090;2023-11-21T13:28:20;0.85;;;0.50;;
79798;SDS011;69283;48.024;11.090;2023-11-21T13:30:47;0.95;;;0.57;;
79798;SDS011;69283;48.024;11.090;2023-11-21T13:33:13;1.00;;;0.40;;
79798;SDS011;69283;48.024;11.090;2023-11-21T13:35:42;1.05;;;0.55;;
79798;SDS011;69283;48.024;11.090;2023-11-21T13:38:13;0.93;;;0.50;;
79798;SDS011;69283;48.024;11.090;2023-11-21T13:40:42;2.78;;;0.82;;
79798;SDS011;69283;48.024;11.090;2023-11-21T13:43:14;2.53;;;1.10;;
79798;SDS011;69283;48.024;11.090;2023-11-21T13:45:40;3.65;;;1.40;;
79798;SDS011;69283;48.024;11.090;2023-11-21T13:48:07;4.70;;;1.35;;
79798;SDS011;69283;48.024;11.090;2023-11-21T13:50:36;4.65;;;1.85;;
79798;SDS011;69283;48.024;11.090;2023-11-21T13:53:02;3.92;;;1.25;;
79798;SDS011;69283;48.024;11.090;2023-11-21T13:55:35;3.67;;;1.27;;
79798;SDS011;69283;48.024;11.090;2023-11-21T13:58:04;3.47;;;1.27;;
79798;SDS011;69283;48.024;11.090;2023-11-21T14:00:34;1.88;;;0.88;;
79798;SDS011;69283;48.024;11.090;2023-11-21T14:03:20;1.48;;;0.88;;
79798;SDS011;69283;48.024;11.090;2023-11-21T14:05:47;2.00;;;1.02;;
79798;SDS011;69283;48.024;11.090;2023-11-21T14:08:19;3.22;;;1.77;;
79798;SDS011;69283;48.024;11.090;2023-11-21T14:10:47;8.60;;;3.67;;
79798;SDS011;69283;48.024;11.090;2023-11-21T14:13:20;6.60;;;3.20;;
79798;SDS011;69283;48.024;11.090;2023-11-21T14:15:48;5.80;;;1.98;;
79798;SDS011;69283;48.024;11.090;2023-11-21T14:18:16;8.30;;;4.32;;
79798;SDS011;69283;48.024;11.090;2023-11-21T14:20:42;7.13;;;2.78;;
79798;SDS011;69283;48.024;11.090;2023-11-21T14:23:09;2.10;;;0.90;;
79798;SDS011;69283;48.024;11.090;2023-11-21T14:25:35;3.78;;;1.17;;
79798;SDS011;69283;48.024;11.090;2023-11-21T14:28:05;1.98;;;1.08;;
79798;SDS011;69283;48.024;11.090;2023-11-21T14:30:31;2.83;;;0.77;;
79798;SDS011;69283;48.024;11.090;2023-11-21T14:33:05;6.88;;;2.88;;
79798;SDS011;69283;48.024;11.090;2023-11-21T14:35:33;3.92;;;1.83;;
79798;SDS011;69283;48.024;11.090;2023-11-21T14:38:11;1.48;;;1.00;;
79798;SDS011;69283;48.024;11.090;2023-11-21T14:40:39;1.50;;;0.73;;
79798;SDS011;69283;48.024;11.090;2023-11-21T14:43:07;3.55;;;1.40;;
79798;SDS011;69283;48.024;11.090;2023-11-21T14:45:37;2.90;;;1.52;;
79798;SDS011;69283;48.024;11.090;2023-11-21T14:48:03;2.85;;;1.23;;
79798;SDS011;69283;48.024;11.090;2023-11-21T14:50:33;2.67;;;0.73;;
79798;SDS011;69283;48.024;11.090;2023-11-21T14:53:22;2.38;;;1.13;;
79798;SDS011;69283;48.024;11.090;2023-11-21T14:56:07;1.70;;;0.77;;
79798;SDS011;69283;48.024;11.090;2023-11-21T14:58:37;1.30;;;0.82;;
79798;SDS011;69283;48.024;11.090;2023-11-21T15:01:07;1.15;;;0.47;;
79798;SDS011;69283;48.024;11.090;2023-11-21T15:03:41;1.20;;;0.90;;
79798;SDS011;69283;48.024;11.090;2023-11-21T15:06:19;2.40;;;1.13;;
79798;SDS011;69283;48.024;11.090;2023-11-21T15:09:05;4.55;;;1.60;;
79798;SDS011;69283;48.024;11.090;2023-11-21T15:11:35;3.85;;;1.65;;
79798;SDS011;69283;48.024;11.090;2023-11-21T15:14:06;5.50;;;1.70;;
79798;SDS011;69283;48.024;11.090;2023-11-21T15:16:36;5.35;;;2.55;;
79798;SDS011;69283;48.024;11.090;2023-11-21T15:19:07;3.88;;;1.73;;
79798;SDS011;69283;48.024;11.090;2023-11-21T15:21:37;1.88;;;1.30;;
79798;SDS011;69283;48.024;11.090;2023-11-21T15:26:34;2.15;;;1.50;;
79798;SDS011;69283;48.024;11.090;2023-11-21T15:29:01;2.10;;;0.90;;
79798;SDS011;69283;48.024;11.090;2023-11-21T15:31:44;0.90;;;0.60;;
79798;SDS011;69283;48.024;11.090;2023-11-21T15:34:14;3.17;;;0.90;;
79798;SDS011;69283;48.024;11.090;2023-11-21T15:36:43;16.63;;;6.45;;
79798;SDS011;69283;48.024;11.090;2023-11-21T15:39:11;37.83;;;11.70;;
79798;SDS011;69283;48.024;11.090;2023-11-21T15:41:37;40.40;;;12.32;;
79798;SDS011;69283;48.024;11.090;2023-11-21T15:44:04;17.83;;;8.77;;
79798;SDS011;69283;48.024;11.090;2023-11-21T15:46:34;13.23;;;7.85;;
79798;SDS011;69283;48.024;11.090;2023-11-21T15:49:02;26.33;;;11.52;;
79798;SDS011;69283;48.024;11.090;2023-11-21T15:54:07;41.47;;;17.33;;
79798;SDS011;69283;48.024;11.090;2023-11-21T15:59:02;25.05;;;11.10;;
79798;SDS011;69283;48.024;11.090;2023-11-21T16:01:28;19.98;;;9.82;;
79798;SDS011;69283;48.024;11.090;2023-11-21T16:03:56;18.58;;;10.25;;
79798;SDS011;69283;48.024;11.090;2023-11-21T16:06:23;13.15;;;6.18;;
79798;SDS011;69283;48.024;11.090;2023-11-21T16:08:54;10.40;;;6.05;;
79798;SDS011;69283;48.024;11.090;2023-11-21T16:11:23;20.35;;;9.50;;
79798;SDS011;69283;48.024;11.090;2023-11-21T16:17:14;10.23;;;7.28;;
79798;SDS011;69283;48.024;11.090;2023-11-21T16:19:42;13.18;;;8.18;;
79798;SDS011;69283;48.024;11.090;2023-11-21T16:22:08;9.95;;;7.18;;
79798;SDS011;69283;48.024;11.090;2023-11-21T16:24:36;7.07;;;4.63;;
79798;SDS011;69283;48.024;11.090;2023-11-21T16:37:40;4.75;;;2.83;;
79798;SDS011;69283;48.024;11.090;2023-11-21T16:40:07;7.93;;;2.83;;
79798;SDS011;69283;48.024;11.090;2023-11-21T16:42:33;7.97;;;3.85;;
79798;SDS011;69283;48.024;11.090;2023-11-21T16:44:59;5.18;;;3.00;;
79798;SDS011;69283;48.024;11.090;2023-11-21T16:47:24;8.20;;;3.83;;
79798;SDS011;69283;48.024;11.090;2023-11-21T16:49:50;8.65;;;3.78;;
79798;SDS011;69283;48.024;11.090;2023-11-21T16:52:16;8.25;;;4.10;;
79798;SDS011;69283;48.024;11.090;2023-11-21T16:54:42;9.88;;;5.47;;
79798;SDS011;69283;48.024;11.090;2023-11-21T16:57:07;7.33;;;4.10;;
79798;SDS011;69283;48.024;11.090;2023-11-21T16:59:33;8.93;;;5.57;;
79798;SDS011;69283;48.024;11.090;2023-11-21T17:01:59;8.50;;;4.82;;